Time;durP1;ratioP1;P1;durP2;ratioP2;P2;SDS_P1;SDS_P2;PMS_P1;PMS_P2;Temp;Humidity;BMP_temperature;BMP_pressure;BME280_temperature;BME280_humidity;BME280_pressure;Samples;Min_cycle;Max_cycle;Signal;HPM_P1;HPM_P2
2023/07/04 00:01:17;;;;;;;3.22;1.02;;;17.60;99.90;;;;;;5031370;28;20030;-65
2023/07/04 00:03:45;;;;;;;2.17;1.38;;;17.60;99.90;;;;;;5050514;28;20041;-65
2023/07/04 00:06:17;;;;;;;2.58;0.90;;;17.60;99.90;;;;;;5031734;28;20459;-65
2023/07/04 00:08:43;;;;;;;2.30;0.50;;;17.70;99.90;;;;;;5016659;28;20032;-65
2023/07/04 00:11:11;;;;;;;1.55;0.80;;;17.70;99.90;;;;;;5032276;28;20380;-65
2023/07/04 00:13:38;;;;;;;2.17;0.82;;;17.60;99.90;;;;;;5032632;28;20025;-64
2023/07/04 00:16:11;;;;;;;2.05;0.93;;;17.70;99.90;;;;;;5032166;28;20159;-65
2023/07/04 00:18:37;;;;;;;7.88;1.55;;;17.70;99.90;;;;;;5032616;28;20037;-64
2023/07/04 00:21:04;;;;;;;4.80;1.42;;;17.50;99.90;;;;;;5049556;28;20503;-65
2023/07/04 00:23:34;;;;;;;4.18;1.70;;;17.40;99.90;;;;;;5032442;28;20060;-65
2023/07/04 00:26:02;;;;;;;4.70;1.20;;;17.10;99.90;;;;;;5049082;28;20072;-65
2023/07/04 00:28:28;;;;;;;4.65;1.60;;;17.00;99.90;;;;;;5032810;28;20025;-65
2023/07/04 00:30:55;;;;;;;2.65;1.40;;;17.00;99.90;;;;;;5049442;28;20021;-65
2023/07/04 00:33:24;;;;;;;3.42;1.63;;;17.00;99.90;;;;;;5049999;28;20403;-65
2023/07/04 00:36:03;;;;;;;1.63;0.93;;;16.90;99.90;;;;;;5031938;28;20025;-65
2023/07/04 00:38:32;;;;;;;2.28;1.08;;;17.00;99.90;;;;;;5043664;28;20027;-65
2023/07/04 00:41:04;;;;;;;2.58;1.20;;;16.90;99.90;;;;;;5049349;28;20025;-65
2023/07/04 00:44:19;;;;;;;3.55;1.20;;;17.00;99.90;;;;;;5032163;28;20103;-65
2023/07/04 00:47:11;;;;;;;4.57;1.60;;;17.10;99.90;;;;;;5049487;28;20032;-66
2023/07/04 00:49:42;;;;;;;;;;;17.10;99.90;;;;;;5035873;28;20079;-66
2023/07/04 00:52:26;;;;;;;2.47;1.60;;;17.20;99.90;;;;;;5032203;28;19927;-66
2023/07/04 00:55:07;;;;;;;2.85;1.23;;;17.30;99.90;;;;;;5043717;28;20485;-66
2023/07/04 00:57:34;;;;;;;1.70;0.80;;;17.30;99.90;;;;;;5023936;28;20054;-65
2023/07/04 01:00:17;;;;;;;10.32;1.20;;;17.30;99.90;;;;;;5029851;28;20396;-65
2023/07/04 01:02:45;;;;;;;3.58;0.65;;;17.20;99.90;;;;;;5030915;28;20032;-65
2023/07/04 01:05:19;;;;;;;1.70;0.90;;;17.20;99.90;;;;;;5026680;28;20030;-65
2023/07/04 01:08:00;;;;;;;2.28;1.23;;;17.30;99.90;;;;;;5016057;28;20037;-65
2023/07/04 01:10:38;;;;;;;1.30;0.90;;;17.40;99.90;;;;;;5038023;28;20020;-65
2023/07/04 01:13:06;;;;;;;3.50;1.48;;;17.30;99.90;;;;;;5017959;28;20029;-65
2023/07/04 01:15:32;;;;;;;1.63;0.80;;;17.40;99.90;;;;;;5043853;28;20036;-65
2023/07/04 01:17:59;;;;;;;1.80;0.80;;;17.20;99.90;;;;;;5036278;28;20405;-65
2023/07/04 01:20:25;;;;;;;3.17;1.50;;;16.90;99.90;;;;;;5028695;28;20497;-66
2023/07/04 01:23:21;;;;;;;6.78;1.23;;;16.80;99.90;;;;;;5053012;28;20079;-66
2023/07/04 01:26:22;;;;;;;2.17;0.85;;;16.70;99.90;;;;;;5049217;28;20037;-65
2023/07/04 01:28:51;;;;;;;1.88;1.25;;;16.60;99.90;;;;;;5041663;28;20094;-65
2023/07/04 01:31:20;;;;;;;3.38;1.30;;;16.60;99.90;;;;;;5035754;28;20492;-66
2023/07/04 01:33:48;;;;;;;4.43;1.85;;;16.50;99.90;;;;;;5029211;28;20171;-65
2023/07/04 01:36:17;;;;;;;6.68;1.45;;;16.50;99.90;;;;;;5015370;28;20509;-65
2023/07/04 01:38:43;;;;;;;2.65;1.25;;;16.60;99.90;;;;;;5030832;28;20037;-65
2023/07/04 01:41:09;;;;;;;6.88;2.45;;;16.70;99.90;;;;;;5049250;28;20037;-65
2023/07/04 01:43:35;;;;;;;0.95;0.68;;;16.70;99.90;;;;;;5015193;28;20057;-65
2023/07/04 01:46:01;;;;;;;6.85;1.85;;;16.90;99.90;;;;;;5041425;28;20037;-65
2023/07/04 01:48:29;;;;;;;5.38;1.40;;;17.00;99.90;;;;;;5017557;28;20029;-65
2023/07/04 01:50:54;;;;;;;1.65;0.98;;;17.20;99.90;;;;;;5050617;28;20078;-65
2023/07/04 01:53:20;;;;;;;5.07;1.35;;;17.30;99.90;;;;;;5020719;28;20037;-66
2023/07/04 01:55:46;;;;;;;1.85;0.93;;;17.40;99.90;;;;;;5035345;28;20083;-66
2023/07/04 01:58:12;;;;;;;1.30;0.85;;;17.40;99.90;;;;;;5045749;28;20708;-66
2023/07/04 02:00:38;;;;;;;1.27;0.65;;;17.40;99.90;;;;;;5035159;28;20115;-64
2023/07/04 02:03:04;;;;;;;1.40;0.73;;;17.40;99.90;;;;;;5027796;28;20404;-65
2023/07/04 02:05:30;;;;;;;3.47;1.00;;;17.50;99.90;;;;;;5034839;28;20086;-64
2023/07/04 02:07:56;;;;;;;2.25;0.85;;;17.50;99.90;;;;;;5051602;28;20117;-65
2023/07/04 02:10:22;;;;;;;3.47;0.90;;;17.50;99.90;;;;;;5045988;28;20095;-64
2023/07/04 02:12:48;;;;;;;3.90;1.10;;;17.40;99.90;;;;;;5052250;28;20032;-64
2023/07/04 02:15:13;;;;;;;1.88;0.82;;;17.40;99.90;;;;;;5051202;28;20025;-64
2023/07/04 02:17:40;;;;;;;2.42;1.13;;;17.40;99.90;;;;;;5052482;28;20028;-64
2023/07/04 02:20:06;;;;;;;3.08;1.02;;;17.40;99.90;;;;;;5047587;28;20052;-64
2023/07/04 02:22:33;;;;;;;1.88;0.90;;;17.40;99.90;;;;;;5034329;28;20033;-66
2023/07/04 02:24:58;;;;;;;2.67;0.95;;;17.40;99.90;;;;;;5026702;28;20052;-65
2023/07/04 02:27:24;;;;;;;1.90;0.90;;;17.50;99.90;;;;;;5032840;28;20033;-65
2023/07/04 02:29:50;;;;;;;9.52;1.27;;;17.50;99.90;;;;;;5049755;28;20040;-64
2023/07/04 02:32:16;;;;;;;2.03;0.90;;;17.40;99.90;;;;;;5048559;28;20028;-64
2023/07/04 02:34:42;;;;;;;2.70;1.35;;;17.40;99.90;;;;;;5051906;28;20044;-64
2023/07/04 02:37:08;;;;;;;1.42;0.80;;;17.40;99.90;;;;;;5031637;28;20033;-64
2023/07/04 02:39:33;;;;;;;1.55;0.93;;;17.40;99.90;;;;;;5052128;28;20063;-64
2023/07/04 02:41:59;;;;;;;1.88;1.00;;;17.30;99.90;;;;;;5049539;28;20400;-64
2023/07/04 02:44:25;;;;;;;0.80;0.63;;;17.40;99.90;;;;;;5051714;28;20032;-64
2023/07/04 02:46:51;;;;;;;2.83;0.88;;;17.30;99.90;;;;;;5050217;28;20601;-64
2023/07/04 02:49:17;;;;;;;2.70;1.13;;;17.40;99.90;;;;;;5049980;28;20079;-65
2023/07/04 02:51:46;;;;;;;0.95;0.57;;;17.40;99.90;;;;;;5051693;28;20507;-64
2023/07/04 02:54:11;;;;;;;4.45;0.98;;;17.40;99.90;;;;;;5050437;28;20347;-64
2023/07/04 02:56:37;;;;;;;2.08;1.05;;;17.40;99.90;;;;;;5051400;28;20055;-64
2023/07/04 02:59:03;;;;;;;1.35;0.70;;;17.40;99.90;;;;;;5050568;28;20041;-65
2023/07/04 03:01:29;;;;;;;1.77;0.98;;;17.40;99.90;;;;;;5033327;28;20389;-65
2023/07/04 03:03:55;;;;;;;2.42;1.25;;;17.40;99.90;;;;;;5039156;22;20053;-68
2023/07/04 03:06:21;;;;;;;1.60;0.90;;;17.30;99.90;;;;;;5028462;28;20033;-69
2023/07/04 03:08:46;;;;;;;1.88;0.98;;;17.30;99.90;;;;;;5046554;28;20037;-69
2023/07/04 03:11:12;;;;;;;2.22;1.20;;;17.20;99.90;;;;;;5030093;28;20099;-69
2023/07/04 03:13:38;;;;;;;5.47;1.30;;;17.20;99.90;;;;;;5016366;28;20030;-68
2023/07/04 03:16:04;;;;;;;2.50;0.98;;;17.20;99.90;;;;;;5010898;28;20669;-68
2023/07/04 03:18:33;;;;;;;6.82;1.70;;;17.20;99.90;;;;;;5011418;28;20018;-68
2023/07/04 03:20:58;;;;;;;2.53;1.25;;;17.20;99.90;;;;;;5009825;28;20463;-68
2023/07/04 03:23:24;;;;;;;2.80;1.13;;;17.10;99.90;;;;;;5018067;28;20022;-67
2023/07/04 03:25:50;;;;;;;3.17;1.58;;;17.10;99.90;;;;;;5011186;28;20038;-68
2023/07/04 03:28:15;;;;;;;2.67;1.35;;;17.10;99.90;;;;;;5011626;28;20026;-68
2023/07/04 03:30:41;;;;;;;4.43;1.73;;;17.00;99.90;;;;;;5010154;28;20034;-68
2023/07/04 03:33:08;;;;;;;2.65;1.13;;;17.00;99.90;;;;;;5016179;28;20026;-69
2023/07/04 03:35:38;;;;;;;7.70;1.30;;;17.10;99.90;;;;;;5010310;28;20037;-69
2023/07/04 03:38:04;;;;;;;2.63;1.47;;;17.10;99.90;;;;;;5007610;28;20030;-69
2023/07/04 03:40:30;;;;;;;7.85;1.95;;;17.10;99.90;;;;;;5009776;28;20025;-69
2023/07/04 03:42:56;;;;;;;5.60;1.42;;;17.00;99.90;;;;;;5006204;28;20041;-69
2023/07/04 03:45:21;;;;;;;2.50;1.27;;;16.90;99.90;;;;;;5009164;28;20033;-69
2023/07/04 03:47:47;;;;;;;4.78;1.67;;;16.90;99.90;;;;;;5010842;28;20034;-69
2023/07/04 03:50:13;;;;;;;1.92;1.10;;;17.00;99.90;;;;;;5010447;28;20021;-68
2023/07/04 03:52:39;;;;;;;2.60;1.02;;;16.90;99.90;;;;;;5010746;28;20025;-68
2023/07/04 03:55:07;;;;;;;3.50;1.45;;;16.90;99.90;;;;;;5007818;28;20037;-69
2023/07/04 03:57:33;;;;;;;6.35;1.63;;;16.90;99.90;;;;;;5010923;28;20029;-71
2023/07/04 03:59:59;;;;;;;2.47;1.20;;;16.90;99.90;;;;;;5004062;28;20026;-71
2023/07/04 04:02:24;;;;;;;3.75;1.58;;;16.90;99.90;;;;;;5026825;28;20068;-72
2023/07/04 04:04:50;;;;;;;3.22;1.30;;;16.90;99.90;;;;;;5009954;28;20137;-72
2023/07/04 04:07:16;;;;;;;3.05;1.30;;;16.90;99.90;;;;;;5010734;28;20034;-71
2023/07/04 04:09:42;;;;;;;3.65;1.25;;;16.90;99.90;;;;;;5014144;28;20464;-71
2023/07/04 04:12:09;;;;;;;3.63;1.40;;;16.80;99.90;;;;;;5009304;28;20057;-71
2023/07/04 04:14:37;;;;;;;5.50;1.13;;;16.80;99.90;;;;;;5008440;28;20033;-70
2023/07/04 04:17:04;;;;;;;2.22;1.27;;;16.90;99.90;;;;;;5008791;28;20113;-71
2023/07/04 04:19:30;;;;;;;16.63;2.20;;;16.80;99.90;;;;;;5007320;28;20052;-71
2023/07/04 04:21:56;;;;;;;3.42;1.17;;;16.80;99.90;;;;;;5005930;28;20433;-71
2023/07/04 04:24:22;;;;;;;3.40;1.48;;;16.80;99.90;;;;;;5009831;28;20030;-70
2023/07/04 04:26:49;;;;;;;2.28;1.13;;;16.90;99.90;;;;;;5009614;28;20058;-71
2023/07/04 04:29:19;;;;;;;1.92;1.02;;;16.90;99.90;;;;;;5009515;28;20508;-71
2023/07/04 04:31:47;;;;;;;2.10;1.23;;;17.00;99.90;;;;;;5005481;28;20471;-70
2023/07/04 04:34:14;;;;;;;3.55;1.38;;;16.90;99.90;;;;;;5012969;28;20041;-71
2023/07/04 04:36:39;;;;;;;5.28;2.53;;;16.90;99.90;;;;;;5013618;28;20801;-71
2023/07/04 04:39:06;;;;;;;3.75;1.25;;;16.90;99.90;;;;;;5003817;28;20096;-70
2023/07/04 04:41:32;;;;;;;9.30;2.00;;;16.90;99.90;;;;;;5009676;28;20030;-70
2023/07/04 04:44:01;;;;;;;2.90;1.17;;;16.90;99.90;;;;;;5013783;28;20038;-70
2023/07/04 04:46:27;;;;;;;6.05;1.70;;;16.90;99.90;;;;;;5031573;28;20389;-70
2023/07/04 04:48:53;;;;;;;4.97;1.23;;;16.90;99.90;;;;;;5014837;28;20084;-71
2023/07/04 04:51:22;;;;;;;5.07;1.35;;;16.90;99.90;;;;;;5012529;28;20062;-69
2023/07/04 04:53:48;;;;;;;2.35;1.25;;;16.90;99.90;;;;;;5015799;28;20121;-71
2023/07/04 04:56:14;;;;;;;3.35;2.22;;;17.00;99.90;;;;;;5013744;28;20030;-71
2023/07/04 04:58:43;;;;;;;3.70;1.70;;;17.00;99.90;;;;;;5008671;28;20125;-70
2023/07/04 05:01:19;;;;;;;6.32;1.92;;;17.10;99.90;;;;;;5011844;28;20109;-70
2023/07/04 05:03:45;;;;;;;5.03;1.35;;;17.10;99.90;;;;;;5011736;28;20045;-71
2023/07/04 05:06:12;;;;;;;6.43;2.03;;;17.20;99.90;;;;;;5013574;28;20457;-72
2023/07/04 05:08:38;;;;;;;3.00;1.38;;;17.30;99.90;;;;;;5013495;28;20030;-68
2023/07/04 05:11:07;;;;;;;2.13;0.82;;;17.40;99.90;;;;;;5015630;28;20029;-70
2023/07/04 05:13:38;;;;;;;4.53;1.55;;;17.40;99.90;;;;;;5008624;28;20129;-77
2023/07/04 05:16:09;;;;;;;3.78;1.48;;;17.50;99.90;;;;;;5011706;28;20398;-70
2023/07/04 05:18:36;;;;;;;6.22;2.75;;;17.50;99.90;;;;;;5008848;28;20034;-71
2023/07/04 05:21:11;;;;;;;9.95;1.80;;;17.60;99.90;;;;;;5012440;28;20032;-71
2023/07/04 05:23:41;;;;;;;6.20;1.67;;;17.70;99.90;;;;;;5002557;28;20472;-72
2023/07/04 05:26:13;;;;;;;7.32;1.52;;;17.80;99.90;;;;;;5005371;28;20037;-71
2023/07/04 05:28:39;;;;;;;2.40;1.30;;;17.90;99.90;;;;;;5015816;28;20041;-72
2023/07/04 05:31:13;;;;;;;3.42;1.23;;;17.90;99.90;;;;;;5012625;28;20060;-73
2023/07/04 05:33:39;;;;;;;2.72;1.40;;;17.90;99.90;;;;;;5012267;28;20107;-74
2023/07/04 05:36:14;;;;;;;3.10;1.60;;;18.00;99.90;;;;;;5011069;28;20044;-70
2023/07/04 05:38:41;;;;;;;4.88;1.50;;;18.10;99.90;;;;;;4990637;28;20140;-70
2023/07/04 05:41:11;;;;;;;7.40;1.50;;;18.10;99.90;;;;;;5011370;28;20080;-71
2023/07/04 05:43:40;;;;;;;3.20;1.58;;;18.30;99.90;;;;;;5014963;28;20038;-73
2023/07/04 05:46:07;;;;;;;4.20;1.48;;;18.40;99.90;;;;;;5012654;28;20034;-71
2023/07/04 05:48:34;;;;;;;6.50;1.48;;;18.30;99.90;;;;;;4992073;28;20072;-60
2023/07/04 05:51:04;;;;;;;8.32;1.73;;;18.40;99.90;;;;;;5005544;28;20033;-60
2023/07/04 05:53:36;;;;;;;6.60;1.45;;;18.50;99.90;;;;;;5018907;28;20026;-60
2023/07/04 05:56:16;;;;;;;6.97;2.13;;;18.50;99.90;;;;;;5015557;28;20026;-60
2023/07/04 05:58:46;;;;;;;4.28;1.50;;;18.50;99.90;;;;;;5011968;28;20520;-60
2023/07/04 06:01:27;;;;;;;3.50;1.48;;;18.50;99.90;;;;;;4998381;28;20062;-59
2023/07/04 06:03:54;;;;;;;4.75;2.00;;;18.50;99.90;;;;;;5006261;28;20713;-59
2023/07/04 06:06:30;;;;;;;4.85;1.60;;;18.70;99.90;;;;;;5010814;28;20120;-58
2023/07/04 06:08:59;;;;;;;9.77;1.73;;;18.80;99.90;;;;;;5015888;28;20521;-60
2023/07/04 06:11:29;;;;;;;2.78;1.20;;;18.90;99.90;;;;;;5014652;28;20061;-60
2023/07/04 06:13:55;;;;;;;4.68;1.85;;;18.90;99.90;;;;;;5009455;28;20030;-60
2023/07/04 06:16:21;;;;;;;6.20;1.50;;;18.90;99.90;;;;;;5007007;28;20030;-60
2023/07/04 06:18:47;;;;;;;6.72;3.30;;;18.90;99.90;;;;;;5007032;28;20100;-60
2023/07/04 06:21:20;;;;;;;11.32;1.50;;;19.00;99.90;;;;;;5002223;28;20048;-60
2023/07/04 06:23:46;;;;;;;5.45;1.48;;;19.00;99.90;;;;;;5000657;28;20038;-61
2023/07/04 06:26:13;;;;;;;13.82;2.20;;;18.90;99.90;;;;;;5001711;28;20698;-61
2023/07/04 06:28:42;;;;;;;4.53;1.50;;;19.00;99.90;;;;;;5003916;28;20046;-61
2023/07/04 06:31:12;;;;;;;12.35;2.30;;;19.20;99.90;;;;;;5000190;28;20512;-61
2023/07/04 06:33:39;;;;;;;;;;;19.20;99.90;;;;;;5000694;28;20029;-61
2023/07/04 06:36:09;;;;;;;2.60;1.50;;;19.30;99.90;;;;;;5000261;28;19923;-61
2023/07/04 06:38:35;;;;;;;4.10;1.77;;;19.50;99.90;;;;;;5001665;28;20119;-61
2023/07/04 06:41:06;;;;;;;3.83;1.70;;;19.50;99.90;;;;;;5005075;28;20068;-61
2023/07/04 06:43:33;;;;;;;7.25;1.63;;;19.40;99.90;;;;;;5011002;28;20018;-61
2023/07/04 06:45:59;;;;;;;3.15;1.30;;;19.50;99.90;;;;;;5011874;28;20029;-61
2023/07/04 06:48:27;;;;;;;2.95;1.50;;;19.50;99.90;;;;;;5004199;28;20113;-61
2023/07/04 06:51:15;;;;;;;12.50;1.63;;;19.60;99.90;;;;;;5007982;28;20681;-73
2023/07/04 06:53:41;;;;;;;6.22;1.90;;;19.60;99.90;;;;;;5011703;28;20029;-72
2023/07/04 06:56:15;;;;;;;2.70;1.30;;;19.70;99.90;;;;;;5015255;28;20477;-72
2023/07/04 06:58:53;;;;;;;2.78;1.52;;;19.80;99.90;;;;;;5010610;28;20037;-71
2023/07/04 07:01:22;;;;;;;2.30;1.30;;;19.60;99.90;;;;;;5011237;28;20034;-71
2023/07/04 07:03:50;;;;;;;6.45;1.67;;;19.60;99.90;;;;;;5011239;28;20442;-71
2023/07/04 07:06:16;;;;;;;3.38;1.70;;;19.70;99.90;;;;;;5009221;28;20108;-72
2023/07/04 07:08:42;;;;;;;6.18;1.58;;;19.70;99.90;;;;;;5011720;28;20036;-72
2023/07/04 07:11:11;;;;;;;5.30;1.63;;;19.80;99.90;;;;;;5026320;28;20034;-72
2023/07/04 07:13:37;;;;;;;8.50;1.98;;;19.90;99.90;;;;;;5009798;28;20436;-72
2023/07/04 07:16:20;;;;;;;4.32;1.90;;;19.90;99.90;;;;;;5013389;28;20029;-72
2023/07/04 07:18:47;;;;;;;2.42;0.95;;;20.00;99.90;;;;;;5010461;28;20030;-71
2023/07/04 07:21:18;;;;;;;1.45;0.93;;;20.10;99.90;;;;;;5011157;28;20422;-72
2023/07/04 07:23:44;;;;;;;2.65;1.27;;;19.90;99.90;;;;;;5009795;28;20032;-72
2023/07/04 07:26:15;;;;;;;2.55;1.05;;;19.80;99.90;;;;;;5010975;28;20045;-71
2023/07/04 07:28:41;;;;;;;3.38;1.40;;;20.00;99.90;;;;;;5010233;28;20037;-71
2023/07/04 07:31:15;;;;;;;2.90;0.90;;;20.10;99.90;;;;;;5010869;28;20040;-72
2023/07/04 07:33:45;;;;;;;8.88;1.85;;;20.10;99.00;;;;;;4993651;28;20032;-72
2023/07/04 07:36:24;;;;;;;3.42;1.10;;;20.20;99.10;;;;;;5009950;28;20030;-72
2023/07/04 07:38:53;;;;;;;3.83;1.73;;;20.20;98.70;;;;;;4994402;28;20116;-72
2023/07/04 07:41:21;;;;;;;5.20;1.70;;;20.10;98.30;;;;;;5013037;28;20029;-71
2023/07/04 07:43:47;;;;;;;2.85;1.20;;;20.00;98.20;;;;;;5009782;28;20030;-70
2023/07/04 07:46:16;;;;;;;4.97;1.20;;;20.10;97.90;;;;;;5010394;28;20397;-71
2023/07/04 07:48:42;;;;;;;2.70;1.42;;;20.20;97.80;;;;;;5009632;28;20042;-70
2023/07/04 07:51:10;;;;;;;3.50;1.38;;;20.20;96.80;;;;;;5010583;28;20061;-70
2023/07/04 07:53:37;;;;;;;7.88;1.67;;;20.30;95.60;;;;;;5009443;28;20026;-70
2023/07/04 07:56:04;;;;;;;6.30;1.20;;;20.30;95.10;;;;;;5009339;28;20034;-70
2023/07/04 07:58:31;;;;;;;3.00;1.15;;;20.10;95.80;;;;;;5010805;28;20034;-71
2023/07/04 08:00:57;;;;;;;3.08;1.38;;;20.20;96.90;;;;;;5010137;28;20033;-70
2023/07/04 08:03:23;;;;;;;3.53;1.45;;;20.20;97.10;;;;;;5015941;28;20048;-70
2023/07/04 08:05:49;;;;;;;5.97;1.48;;;20.50;96.70;;;;;;5010548;28;20068;-70
2023/07/04 08:08:14;;;;;;;2.88;1.20;;;20.60;97.00;;;;;;5009338;28;20109;-70
2023/07/04 08:10:42;;;;;;;3.47;1.70;;;20.70;96.70;;;;;;5008239;28;20029;-71
2023/07/04 08:13:10;;;;;;;3.80;1.55;;;20.50;97.60;;;;;;5010329;28;20098;-70
2023/07/04 08:15:36;;;;;;;3.35;1.40;;;20.50;96.50;;;;;;5012857;28;20102;-70
2023/07/04 08:18:08;;;;;;;4.07;1.33;;;20.40;97.00;;;;;;5010582;28;20460;-71
2023/07/04 08:20:34;;;;;;;5.45;1.52;;;20.60;97.20;;;;;;5013022;28;20022;-71
2023/07/04 08:23:00;;;;;;;4.93;1.58;;;20.70;97.70;;;;;;5014204;28;20038;-70
2023/07/04 08:25:26;;;;;;;4.38;1.55;;;20.80;96.80;;;;;;5015545;28;20044;-71
2023/07/04 08:27:53;;;;;;;2.22;1.08;;;21.00;96.30;;;;;;5013192;28;20030;-71
2023/07/04 08:30:20;;;;;;;4.95;1.73;;;21.00;96.50;;;;;;5012880;28;20026;-71
2023/07/04 08:32:46;;;;;;;6.43;1.80;;;21.00;95.90;;;;;;5014193;28;20087;-70
2023/07/04 08:35:12;;;;;;;5.55;1.50;;;20.90;96.60;;;;;;5013862;28;20034;-71
2023/07/04 08:37:38;;;;;;;3.38;1.80;;;21.10;95.90;;;;;;5014350;28;20022;-71
2023/07/04 08:40:05;;;;;;;5.28;2.40;;;21.20;96.10;;;;;;5013709;28;20046;-71
2023/07/04 08:42:33;;;;;;;5.32;1.77;;;21.20;95.40;;;;;;5013791;28;20026;-70
2023/07/04 08:44:59;;;;;;;3.17;1.27;;;21.40;94.70;;;;;;5010088;28;20626;-70
2023/07/04 08:47:26;;;;;;;4.93;1.48;;;21.40;94.00;;;;;;5012849;28;20033;-71
2023/07/04 08:50:19;;;;;;;7.65;1.60;;;21.50;93.60;;;;;;5016083;28;20493;-71
2023/07/04 08:52:52;;;;;;;3.25;1.25;;;21.60;91.90;;;;;;5007938;28;20037;-71
2023/07/04 08:55:19;;;;;;;4.75;1.25;;;21.70;90.80;;;;;;5012083;28;20022;-67
2023/07/04 08:58:00;;;;;;;3.95;1.60;;;21.90;89.80;;;;;;5012945;28;20045;-66
2023/07/04 09:00:43;;;;;;;2.90;1.75;;;21.70;86.80;;;;;;5012215;28;20034;-66
2023/07/04 09:03:46;;;;;;;4.97;1.95;;;21.90;86.00;;;;;;5012021;28;20049;-66
2023/07/04 09:06:36;;;;;;;2.88;1.35;;;21.80;86.60;;;;;;5012455;28;20041;-66
2023/07/04 09:10:02;;;;;;;5.57;1.80;;;21.90;87.30;;;;;;5016664;22;20050;-60
2023/07/04 09:12:34;;;;;;;5.15;1.95;;;22.00;85.10;;;;;;5012697;28;20803;-60
2023/07/04 09:15:37;;;;;;;4.00;1.70;;;21.90;84.80;;;;;;4996527;28;20034;-61
2023/07/04 09:18:32;;;;;;;8.00;2.20;;;22.10;84.30;;;;;;5012991;28;20488;-61
2023/07/04 09:21:20;;;;;;;6.80;2.42;;;22.20;84.50;;;;;;5013332;28;20120;-60
2023/07/04 09:23:49;;;;;;;3.08;1.40;;;22.30;82.40;;;;;;5012878;28;20030;-60
2023/07/04 09:26:24;;;;;;;5.07;1.65;;;22.40;82.60;;;;;;4996363;28;20049;-60
2023/07/04 09:28:52;;;;;;;4.28;1.27;;;22.30;80.00;;;;;;4978891;28;20516;-60
2023/07/04 09:31:22;;;;;;;3.80;1.38;;;22.20;79.50;;;;;;4976161;28;20034;-60
2023/07/04 09:33:52;;;;;;;4.63;1.50;;;22.50;80.20;;;;;;4992609;28;20136;-61
2023/07/04 09:36:20;;;;;;;2.30;1.30;;;22.70;80.10;;;;;;4996101;28;20030;-61
2023/07/04 09:39:00;;;;;;;5.63;1.63;;;22.90;77.40;;;;;;5012286;28;20133;-61
2023/07/04 09:41:31;;;;;;;3.78;1.73;;;23.20;76.60;;;;;;4994024;28;20058;-61
2023/07/04 09:44:26;;;;;;;2.83;1.52;;;22.90;77.30;;;;;;5010179;28;20033;-61
2023/07/04 09:47:01;;;;;;;5.38;1.80;;;22.80;76.40;;;;;;5012246;28;20038;-62
2023/07/04 09:49:35;;;;;;;5.60;1.65;;;22.80;76.60;;;;;;4990132;28;20038;-62
2023/07/04 09:52:06;;;;;;;3.78;1.52;;;23.00;77.70;;;;;;4994997;28;20040;-62
2023/07/04 09:54:38;;;;;;;5.15;1.73;;;23.30;76.10;;;;;;4995007;28;20076;-62
2023/07/04 09:57:21;;;;;;;3.20;1.40;;;23.40;73.00;;;;;;4995080;28;20144;-62
2023/07/04 09:59:48;;;;;;;5.15;1.77;;;23.20;74.30;;;;;;4998522;28;20037;-62
2023/07/04 10:02:24;;;;;;;2.55;1.23;;;23.50;74.60;;;;;;4994485;28;20386;-61
2023/07/04 10:04:50;;;;;;;3.97;1.70;;;23.80;75.30;;;;;;5012525;28;20061;-61
2023/07/04 10:07:23;;;;;;;4.68;1.65;;;23.70;71.40;;;;;;4994836;28;20037;-61
2023/07/04 10:09:58;;;;;;;3.85;1.20;;;23.70;71.60;;;;;;4995182;28;20042;-61
2023/07/04 10:12:26;;;;;;;3.38;1.40;;;24.00;70.50;;;;;;5005175;28;20033;-61
2023/07/04 10:14:56;;;;;;;3.95;1.55;;;23.90;69.90;;;;;;5012410;28;20486;-63
2023/07/04 10:17:27;;;;;;;2.40;1.30;;;23.90;69.60;;;;;;4994757;28;20505;-62
2023/07/04 10:20:00;;;;;;;3.65;1.48;;;23.90;71.60;;;;;;5012317;28;20038;-63
2023/07/04 10:22:45;;;;;;;4.63;1.58;;;23.90;71.30;;;;;;5013366;28;20022;-63
2023/07/04 10:25:22;;;;;;;4.55;1.58;;;24.10;69.90;;;;;;4993249;28;20025;-62
2023/07/04 10:27:53;;;;;;;6.30;1.80;;;23.90;67.30;;;;;;5006884;28;20457;-62
2023/07/04 10:30:24;;;;;;;5.45;1.92;;;24.00;66.30;;;;;;5001521;28;20037;-62
2023/07/04 10:33:03;;;;;;;2.63;1.60;;;24.10;61.40;;;;;;4994796;28;20038;-62
2023/07/04 10:35:32;;;;;;;4.18;1.70;;;24.10;61.80;;;;;;4994548;28;20734;-64
2023/07/04 10:38:09;;;;;;;8.40;2.08;;;24.20;60.70;;;;;;4994531;28;20030;-61
2023/07/04 10:40:39;;;;;;;6.05;2.20;;;24.10;61.50;;;;;;4994725;28;20021;-61
2023/07/04 10:43:10;;;;;;;3.80;2.00;;;24.10;62.10;;;;;;5011740;28;20033;-62
2023/07/04 10:45:41;;;;;;;3.42;1.80;;;24.40;62.80;;;;;;5011761;28;20117;-62
2023/07/04 10:59:07;;;;;;;4.78;1.88;;;24.60;61.60;;;;;;5007209;28;20025;-70
2023/07/04 11:01:43;;;;;;;3.38;1.40;;;24.70;60.40;;;;;;4988371;28;20034;-73
2023/07/04 11:04:37;;;;;;;3.50;1.60;;;24.70;60.90;;;;;;4993532;28;20038;-69
2023/07/04 11:07:18;;;;;;;6.07;1.95;;;24.90;61.60;;;;;;5009995;28;20507;-70
2023/07/04 11:09:45;;;;;;;5.00;1.85;;;25.20;60.20;;;;;;4994667;28;20034;-70
2023/07/04 11:12:18;;;;;;;2.90;1.33;;;25.30;60.50;;;;;;4991721;28;20034;-70
2023/07/04 11:14:48;;;;;;;3.28;1.35;;;25.10;61.00;;;;;;5011333;28;20021;-69
2023/07/04 11:17:19;;;;;;;3.50;1.83;;;24.90;61.10;;;;;;4993024;28;20025;-73
2023/07/04 11:20:12;;;;;;;3.38;1.95;;;24.90;60.70;;;;;;4994271;28;20538;-68
2023/07/04 11:22:49;;;;;;;3.15;1.23;;;25.10;61.10;;;;;;5006297;28;20316;-70
2023/07/04 11:25:32;;;;;;;3.22;1.42;;;25.10;60.70;;;;;;5011492;28;20029;-69
2023/07/04 11:28:27;;;;;;;2.78;1.55;;;25.50;60.60;;;;;;5010801;28;20030;-71
2023/07/04 11:31:11;;;;;;;3.28;1.35;;;25.70;61.40;;;;;;5007931;28;20030;-70
2023/07/04 11:33:56;;;;;;;3.95;1.50;;;25.90;59.60;;;;;;5010541;28;20034;-71
2023/07/04 11:36:33;;;;;;;2.33;1.20;;;25.80;59.40;;;;;;5003508;28;20033;-71
2023/07/04 11:39:26;;;;;;;4.55;1.90;;;26.00;59.90;;;;;;5010200;28;20042;-71
2023/07/04 11:41:52;;;;;;;5.97;2.38;;;26.20;57.40;;;;;;4994250;28;20062;-70
2023/07/04 11:44:41;;;;;;;3.42;1.30;;;26.00;57.20;;;;;;4989567;28;20030;-70
2023/07/04 11:47:13;;;;;;;4.70;1.80;;;26.20;57.00;;;;;;4976015;28;20452;-70
2023/07/04 11:49:39;;;;;;;3.47;1.70;;;26.00;57.30;;;;;;4993848;28;20101;-70
2023/07/04 11:52:20;;;;;;;4.70;1.70;;;25.90;56.80;;;;;;5009386;28;20029;-71
2023/07/04 11:55:07;;;;;;;4.10;1.10;;;26.10;57.60;;;;;;5010992;28;20044;-70
2023/07/04 11:58:16;;;;;;;4.65;1.67;;;26.40;57.20;;;;;;4977602;28;20065;-70
2023/07/04 12:00:48;;;;;;;2.67;1.42;;;26.40;57.80;;;;;;5010063;28;20034;-71
2023/07/04 12:03:20;;;;;;;3.30;1.73;;;26.60;58.60;;;;;;5018233;28;20038;-71
2023/07/04 12:05:52;;;;;;;5.38;1.27;;;26.70;57.70;;;;;;5010889;28;20038;-71
2023/07/04 12:08:25;;;;;;;3.88;1.40;;;26.70;57.90;;;;;;4992309;28;20097;-71
2023/07/04 12:10:59;;;;;;;2.80;1.48;;;26.20;58.60;;;;;;5010573;28;20041;-71
2023/07/04 12:13:26;;;;;;;3.00;1.40;;;26.20;59.10;;;;;;5009017;28;20037;-71
2023/07/04 12:15:56;;;;;;;2.42;1.00;;;26.40;58.80;;;;;;4993474;28;20033;-70
2023/07/04 12:18:31;;;;;;;4.35;1.73;;;26.70;59.60;;;;;;4991855;28;20096;-72
2023/07/04 12:20:57;;;;;;;2.95;1.35;;;26.90;57.90;;;;;;4991616;28;20117;-71
2023/07/04 12:23:24;;;;;;;3.75;1.63;;;26.90;58.50;;;;;;4991072;28;20576;-71
2023/07/04 12:25:53;;;;;;;2.28;1.38;;;26.90;58.30;;;;;;4988767;28;20034;-71
2023/07/04 12:28:27;;;;;;;2.88;1.42;;;27.20;57.50;;;;;;4985713;28;20156;-71
2023/07/04 12:30:59;;;;;;;8.45;1.38;;;27.10;57.20;;;;;;4989116;28;20036;-72
2023/07/04 12:33:34;;;;;;;5.50;1.85;;;27.40;57.70;;;;;;5000904;28;20084;-71
2023/07/04 12:36:09;;;;;;;5.55;1.15;;;27.30;57.40;;;;;;5003589;28;20030;-71
2023/07/04 12:38:53;;;;;;;3.03;1.17;;;26.90;58.40;;;;;;4988822;28;20041;-71
2023/07/04 12:41:26;;;;;;;3.67;1.52;;;26.90;58.30;;;;;;4990831;28;20030;-71
2023/07/04 12:44:02;;;;;;;4.35;1.20;;;26.80;58.60;;;;;;4990902;28;20053;-70
2023/07/04 12:46:31;;;;;;;7.10;1.38;;;26.80;58.60;;;;;;4981274;28;20489;-70
2023/07/04 12:48:59;;;;;;;6.45;1.58;;;26.90;58.80;;;;;;4981118;28;20034;-71
2023/07/04 12:51:30;;;;;;;3.33;1.45;;;26.90;58.80;;;;;;4991430;28;20026;-71
2023/07/04 12:54:00;;;;;;;4.47;1.85;;;26.90;60.00;;;;;;4990711;28;20036;-69
2023/07/04 12:56:28;;;;;;;2.72;1.42;;;27.10;60.00;;;;;;4990364;28;20223;-70
2023/07/04 12:58:54;;;;;;;2.78;1.42;;;27.00;60.30;;;;;;4991082;28;20121;-70
2023/07/04 13:01:33;;;;;;;4.30;1.52;;;26.90;59.80;;;;;;5002481;28;20073;-71
2023/07/04 13:04:06;;;;;;;12.10;2.08;;;27.10;59.60;;;;;;4990145;28;20382;-71
2023/07/04 13:06:33;;;;;;;6.13;1.23;;;26.80;60.00;;;;;;4979357;28;20030;-72
2023/07/04 13:08:59;;;;;;;4.97;1.80;;;27.10;60.60;;;;;;4974307;28;20037;-72
2023/07/04 13:11:26;;;;;;;4.20;2.22;;;27.50;59.40;;;;;;4992405;28;20030;-71
2023/07/04 13:14:08;;;;;;;4.88;1.70;;;27.80;60.10;;;;;;4992664;28;20029;-71
2023/07/04 13:16:34;;;;;;;4.85;1.40;;;27.80;58.00;;;;;;5001913;28;20345;-72
2023/07/04 13:19:05;;;;;;;4.03;1.48;;;27.80;58.90;;;;;;4992622;28;20043;-72